
Distance (Route):
Temperature : -14.0°C
Humidity : 26.5%
Pressure : 466.7hPa| Receiver | Frames | First received | Last received |
|---|---|---|---|
| AUTORXJP | 222 | 2026-08-31 23:35:50 | 2026-09-01 01:32:54 |
| Receiver | Date | Latitude | Longitude | Direction | Speed | Altitude | Climb | Temperature | Humidity | Pressure | Voltage | Killtimer | Uptime | BKT | XDATA |
|---|---|---|---|---|---|---|---|---|---|---|---|---|---|---|---|
| AUTORXJP | 2026-09-01 01:32:54 | 44.03464 | 6.01339 | 95° | 62km/h | 6428m | -3.3m/s | -14.0°C | 26.5% | 466.7hPa | 0V | 00:00:00 | 00:00:00 | 00:00:00 | |
| AUTORXJP | 2026-09-01 01:32:23 | 44.03465 | 6.01297 | 92° | 58km/h | 6437m | -3.0m/s | -14.0°C | 28.2% | 466.2hPa | 0V | 00:00:00 | 00:00:00 | 00:00:00 | |
| AUTORXJP | 2026-09-01 01:31:52 | 44.03458 | 6.00633 | 90° | 58km/h | 6570m | -3.7m/s | -15.1°C | 43.2% | 458.1hPa | 0V | 00:00:00 | 00:00:00 | 00:00:00 | |
| AUTORXJP | 2026-09-01 01:31:21 | 44.03493 | 5.99944 | 91° | 73km/h | 6699m | -3.2m/s | -16.0°C | 45.5% | 450.2hPa | 0V | 00:00:00 | 00:00:00 | 00:00:00 | |
| AUTORXJP | 2026-09-01 01:30:50 | 44.03431 | 5.99107 | 78° | 77km/h | 6833m | -3.8m/s | -16.4°C | 29.8% | 442.3hPa | 0V | 00:00:00 | 00:00:00 | 00:00:00 | |
| AUTORXJP | 2026-09-01 01:30:18 | 44.03302 | 5.98342 | 77° | 68km/h | 6964m | -4.2m/s | -17.6°C | 60.1% | 434.4hPa | 0V | 00:00:00 | 00:00:00 | 00:00:00 | |
| AUTORXJP | 2026-09-01 01:29:47 | 44.03193 | 5.97571 | 82° | 64km/h | 7100m | -4.5m/s | -18.5°C | 22.6% | 426.5hPa | 0V | 00:00:00 | 00:00:00 | 00:00:00 | |
| AUTORXJP | 2026-09-01 01:29:16 | 44.03186 | 5.96790 | 91° | 73km/h | 7239m | -3.9m/s | -19.8°C | 54.3% | 418.5hPa | 0V | 00:00:00 | 00:00:00 | 00:00:00 | |
| AUTORXJP | 2026-09-01 01:28:45 | 44.03109 | 5.95989 | 83° | 69km/h | 7375m | -4.3m/s | -20.7°C | 68.2% | 410.9hPa | 0V | 00:00:00 | 00:00:00 | 00:00:00 | |
| AUTORXJP | 2026-09-01 01:28:14 | 44.03069 | 5.95174 | 87° | 84km/h | 7512m | -2.9m/s | -21.6°C | 66.5% | 403.3hPa | 0V | 00:00:00 | 00:00:00 | 00:00:00 | |
| AUTORXJP | 2026-09-01 01:27:43 | 44.02980 | 5.94254 | 82° | 86km/h | 7651m | -5.7m/s | -22.9°C | 69.9% | 395.7hPa | 0V | 00:00:00 | 00:00:00 | 00:00:00 | |
| AUTORXJP | 2026-09-01 01:27:12 | 44.02925 | 5.93320 | 86° | 86km/h | 7794m | -4.4m/s | -24.2°C | 68.5% | 388.0hPa | 0V | 00:00:00 | 00:00:00 | 00:00:00 | |
| AUTORXJP | 2026-09-01 01:26:41 | 44.02848 | 5.92431 | 88° | 68km/h | 7938m | -4.2m/s | -25.2°C | 73.4% | 380.4hPa | 0V | 00:00:00 | 00:00:00 | 00:00:00 | |
| AUTORXJP | 2026-09-01 01:26:10 | 44.02856 | 5.91583 | 92° | 86km/h | 8081m | -4.5m/s | -26.2°C | 75.0% | 372.7hPa | 0V | 00:00:00 | 00:00:00 | 00:00:00 | |
| AUTORXJP | 2026-09-01 01:25:39 | 44.02864 | 5.90622 | 89° | 89km/h | 8233m | -4.9m/s | -27.2°C | 65.6% | 365.1hPa | 0V | 00:00:00 | 00:00:00 | 00:00:00 | |
| AUTORXJP | 2026-09-01 01:25:08 | 44.02849 | 5.89645 | 84° | 84km/h | 8387m | -4.8m/s | -28.4°C | 73.5% | 357.4hPa | 0V | 00:00:00 | 00:00:00 | 00:00:00 | |
| AUTORXJP | 2026-09-01 01:24:37 | 44.02772 | 5.88689 | 81° | 88km/h | 8540m | -4.7m/s | -29.4°C | 71.1% | 349.8hPa | 0V | 00:00:00 | 00:00:00 | 00:00:00 | |
| AUTORXJP | 2026-09-01 01:24:05 | 44.02643 | 5.87685 | 78° | 97km/h | 8690m | -3.9m/s | -30.8°C | 74.8% | 342.3hPa | 0V | 00:00:00 | 00:00:00 | 00:00:00 | |
| AUTORXJP | 2026-09-01 01:23:34 | 44.02530 | 5.86590 | 86° | 99km/h | 8843m | -5.0m/s | -32.1°C | 75.4% | 335.0hPa | 0V | 00:00:00 | 00:00:00 | 00:00:00 | |
| AUTORXJP | 2026-09-01 01:23:03 | 44.02477 | 5.85526 | 77° | 95km/h | 8996m | -6.8m/s | -33.3°C | 72.7% | 327.6hPa | 0V | 00:00:00 | 00:00:00 | 00:00:00 | |
| AUTORXJP | 2026-09-01 01:22:32 | 44.02326 | 5.84555 | 81° | 86km/h | 9148m | -4.0m/s | -34.7°C | 74.8% | 320.6hPa | 0V | 00:00:00 | 00:00:00 | 00:00:00 | |
| AUTORXJP | 2026-09-01 01:22:01 | 44.02277 | 5.83550 | 86° | 86km/h | 9300m | -2.2m/s | -35.9°C | 71.9% | 313.7hPa | 0V | 00:00:00 | 00:00:00 | 00:00:00 | |
| AUTORXJP | 2026-09-01 01:21:30 | 44.02224 | 5.82568 | 85° | 88km/h | 9447m | -4.0m/s | -37.1°C | 66.8% | 307.0hPa | 0V | 00:00:00 | 00:00:00 | 00:00:00 | |
| AUTORXJP | 2026-09-01 01:20:59 | 44.02123 | 5.81628 | 80° | 88km/h | 9599m | -5.5m/s | -38.3°C | 58.4% | 300.3hPa | 0V | 00:00:00 | 00:00:00 | 00:00:00 | |
| AUTORXJP | 2026-09-01 01:20:28 | 44.02007 | 5.80641 | 79° | 97km/h | 9749m | -3.9m/s | -39.7°C | 57.3% | 293.7hPa | 0V | 00:00:00 | 00:00:00 | 00:00:00 | |
| AUTORXJP | 2026-09-01 01:19:57 | 44.01887 | 5.79579 | 81° | 102km/h | 9900m | -3.8m/s | -40.9°C | 50.6% | 287.3hPa | 0V | 00:00:00 | 00:00:00 | 00:00:00 | |
| AUTORXJP | 2026-09-01 01:19:26 | 44.01826 | 5.78464 | 83° | 100km/h | 10050m | -4.1m/s | -42.3°C | 53.6% | 281.0hPa | 0V | 00:00:00 | 00:00:00 | 00:00:00 | |
| AUTORXJP | 2026-09-01 01:18:55 | 44.01696 | 5.77456 | 77° | 89km/h | 10201m | -6.2m/s | -43.7°C | 56.4% | 274.6hPa | 0V | 00:00:00 | 00:00:00 | 00:00:00 | |
| AUTORXJP | 2026-09-01 01:18:24 | 44.01512 | 5.76443 | 74° | 99km/h | 10357m | -3.1m/s | -44.9°C | 57.1% | 268.3hPa | 0V | 00:00:00 | 00:00:00 | 00:00:00 | |
| AUTORXJP | 2026-09-01 01:17:52 | 44.01283 | 5.75470 | 67° | 95km/h | 10511m | -4.4m/s | -46.0°C | 54.0% | 262.2hPa | 0V | 00:00:00 | 00:00:00 | 00:00:00 | |
| AUTORXJP | 2026-09-01 01:17:21 | 44.01000 | 5.74481 | 70° | 110km/h | 10666m | -4.6m/s | -47.3°C | 47.8% | 256.0hPa | 0V | 00:00:00 | 00:00:00 | 00:00:00 | |
| AUTORXJP | 2026-09-01 01:16:50 | 44.00752 | 5.73305 | 70° | 108km/h | 10819m | -4.7m/s | -48.0°C | 41.1% | 250.0hPa | 0V | 00:00:00 | 00:00:00 | 00:00:00 | |
| AUTORXJP | 2026-09-01 01:16:19 | 44.00468 | 5.72099 | 72° | 108km/h | 10982m | -4.0m/s | -48.4°C | 35.6% | 243.9hPa | 0V | 00:00:00 | 00:00:00 | 00:00:00 | |
| AUTORXJP | 2026-09-01 01:15:48 | 44.00199 | 5.70880 | 78° | 119km/h | 11136m | -5.0m/s | -49.2°C | 34.3% | 238.2hPa | 0V | 00:00:00 | 00:00:00 | 00:00:00 | |
| AUTORXJP | 2026-09-01 01:15:17 | 43.99895 | 5.69584 | 69° | 120km/h | 11295m | -3.8m/s | -50.4°C | 34.9% | 232.5hPa | 0V | 00:00:00 | 00:00:00 | 00:00:00 | |
| AUTORXJP | 2026-09-01 01:14:46 | 43.99588 | 5.68299 | 73° | 128km/h | 11450m | -5.7m/s | -51.5°C | 34.0% | 226.8hPa | 0V | 00:00:00 | 00:00:00 | 00:00:00 | |
| AUTORXJP | 2026-09-01 01:14:15 | 43.99345 | 5.67023 | 75° | 111km/h | 11616m | -5.6m/s | -52.4°C | 32.8% | 221.0hPa | 0V | 00:00:00 | 00:00:00 | 00:00:00 | |
| AUTORXJP | 2026-09-01 01:13:44 | 43.99032 | 5.65753 | 66° | 130km/h | 11790m | -4.8m/s | -53.5°C | 31.9% | 215.1hPa | 0V | 00:00:00 | 00:00:00 | 00:00:00 | |
| AUTORXJP | 2026-09-01 01:13:13 | 43.98721 | 5.64468 | 71° | 113km/h | 11972m | -5.5m/s | -54.5°C | 31.2% | 209.0hPa | 0V | 00:00:00 | 00:00:00 | 00:00:00 | |
| AUTORXJP | 2026-09-01 01:12:42 | 43.98346 | 5.63210 | 71° | 133km/h | 12158m | -5.8m/s | -55.7°C | 28.5% | 203.0hPa | 0V | 00:00:00 | 00:00:00 | 00:00:00 | |
| AUTORXJP | 2026-09-01 01:12:11 | 43.98032 | 5.61972 | 69° | 117km/h | 12340m | -5.4m/s | -56.6°C | 26.5% | 197.1hPa | 0V | 00:00:00 | 00:00:00 | 00:00:00 | |
| AUTORXJP | 2026-09-01 01:11:40 | 43.97679 | 5.60619 | 75° | 139km/h | 12528m | -5.5m/s | -57.2°C | 24.1% | 191.3hPa | 0V | 00:00:00 | 00:00:00 | 00:00:00 | |
| AUTORXJP | 2026-09-01 01:11:08 | 43.97402 | 5.59173 | 75° | 142km/h | 12716m | -5.7m/s | -58.0°C | 21.7% | 185.7hPa | 0V | 00:00:00 | 00:00:00 | 00:00:00 | |
| AUTORXJP | 2026-09-01 01:10:37 | 43.97170 | 5.57731 | 79° | 137km/h | 12893m | -5.6m/s | -58.8°C | 18.7% | 180.4hPa | 0V | 00:00:00 | 00:00:00 | 00:00:00 | |
| AUTORXJP | 2026-09-01 01:10:06 | 43.96969 | 5.56367 | 76° | 113km/h | 13070m | -5.0m/s | -58.6°C | 15.8% | 175.3hPa | 0V | 00:00:00 | 00:00:00 | 00:00:00 | |
| AUTORXJP | 2026-09-01 01:09:35 | 43.96710 | 5.55053 | 80° | 130km/h | 13253m | -5.4m/s | -59.7°C | 12.3% | 170.2hPa | 0V | 00:00:00 | 00:00:00 | 00:00:00 | |
| AUTORXJP | 2026-09-01 01:09:04 | 43.96547 | 5.53799 | 76° | 104km/h | 13429m | -6.0m/s | -59.7°C | 9.2% | 165.3hPa | 0V | 00:00:00 | 00:00:00 | 00:00:00 | |
| AUTORXJP | 2026-09-01 01:08:33 | 43.96359 | 5.52557 | 83° | 111km/h | 13621m | -6.0m/s | -59.9°C | 6.2% | 160.3hPa | 0V | 00:00:00 | 00:00:00 | 00:00:00 | |
| AUTORXJP | 2026-09-01 01:08:02 | 43.96168 | 5.51391 | 81° | 122km/h | 13821m | -5.5m/s | -60.0°C | 3.7% | 155.2hPa | 0V | 00:00:00 | 00:00:00 | 00:00:00 | |
| AUTORXJP | 2026-09-01 01:07:31 | 43.95991 | 5.50275 | 82° | 106km/h | 14026m | -5.5m/s | -59.4°C | 3.0% | 150.1hPa | 0V | 00:00:00 | 00:00:00 | 00:00:00 | |
| AUTORXJP | 2026-09-01 01:07:00 | 43.95808 | 5.49191 | 79° | 110km/h | 14238m | -6.1m/s | -58.6°C | 2.7% | 145.1hPa | 0V | 00:00:00 | 00:00:00 | 00:00:00 | |
| AUTORXJP | 2026-09-01 01:06:29 | 43.95698 | 5.48158 | 80° | 75km/h | 14449m | -6.6m/s | -57.7°C | 2.4% | 140.2hPa | 0V | 00:00:00 | 00:00:00 | 00:00:00 | |
| AUTORXJP | 2026-09-01 01:05:58 | 43.95651 | 5.47190 | 94° | 82km/h | 14664m | -6.3m/s | -58.3°C | 1.9% | 135.4hPa | 0V | 00:00:00 | 00:00:00 | 00:00:00 | |
| AUTORXJP | 2026-09-01 01:05:27 | 43.95566 | 5.46330 | 85° | 69km/h | 14879m | -7.2m/s | -59.2°C | 1.5% | 130.7hPa | 0V | 00:00:00 | 00:00:00 | 00:00:00 | |
| AUTORXJP | 2026-09-01 01:04:55 | 43.95443 | 5.45544 | 65° | 71km/h | 15106m | -6.8m/s | -59.1°C | 1.2% | 126.1hPa | 0V | 00:00:00 | 00:00:00 | 00:00:00 | |
| AUTORXJP | 2026-09-01 01:04:24 | 43.95302 | 5.44719 | 70° | 68km/h | 15338m | -7.6m/s | -58.5°C | 0.9% | 121.4hPa | 0V | 00:00:00 | 00:00:00 | 00:00:00 | |
| AUTORXJP | 2026-09-01 01:03:53 | 43.95113 | 5.43942 | 69° | 57km/h | 15587m | -7.2m/s | -58.9°C | 0.4% | 116.6hPa | 0V | 00:00:00 | 00:00:00 | 00:00:00 | |
| AUTORXJP | 2026-09-01 01:03:22 | 43.95019 | 5.43231 | 85° | 53km/h | 15821m | -7.0m/s | -59.6°C | 0.0% | 112.2hPa | 0V | 00:00:00 | 00:00:00 | 00:00:00 | |
| AUTORXJP | 2026-09-01 01:02:51 | 43.94939 | 5.42596 | 74° | 40km/h | 16074m | -8.1m/s | -59.1°C | 0.0% | 107.7hPa | 0V | 00:00:00 | 00:00:00 | 00:00:00 | |
| AUTORXJP | 2026-09-01 01:02:20 | 43.94882 | 5.41999 | 72° | 51km/h | 16315m | -6.9m/s | -59.8°C | 0.0% | 103.5hPa | 0V | 00:00:00 | 00:00:00 | 00:00:00 | |
| AUTORXJP | 2026-09-01 01:01:49 | 43.94859 | 5.41427 | 84° | 62km/h | 16560m | -6.8m/s | -59.7°C | 0.0% | 99.4hPa | 0V | 00:00:00 | 00:00:00 | 00:00:00 | |
| AUTORXJP | 2026-09-01 01:01:18 | 43.94922 | 5.40809 | 114° | 62km/h | 16809m | -7.2m/s | -58.1°C | 0.0% | 95.4hPa | 0V | 00:00:00 | 00:00:00 | 00:00:00 | |
| AUTORXJP | 2026-09-01 01:00:47 | 43.94997 | 5.40353 | 120° | 38km/h | 17069m | -8.5m/s | -58.2°C | 0.0% | 91.4hPa | 0V | 00:00:00 | 00:00:00 | 00:00:00 | |
| AUTORXJP | 2026-09-01 01:00:17 | 43.95050 | 5.39995 | 57° | 31km/h | 17342m | -6.7m/s | -56.4°C | 0.0% | 87.5hPa | 0V | 00:00:00 | 00:00:00 | 00:00:00 | |
| AUTORXJP | 2026-09-01 00:59:45 | 43.94947 | 5.39680 | 91° | 20km/h | 17616m | -8.7m/s | -56.5°C | 0.0% | 83.7hPa | 0V | 00:00:00 | 00:00:00 | 00:00:00 | |
| AUTORXJP | 2026-09-01 00:59:14 | 43.94748 | 5.39319 | 49° | 71km/h | 17891m | -7.9m/s | -58.4°C | 0.0% | 80.0hPa | 0V | 00:00:00 | 00:00:00 | 00:00:00 | |
| AUTORXJP | 2026-09-01 00:58:43 | 43.94568 | 5.38675 | 91° | 62km/h | 18174m | -8.6m/s | -58.4°C | 0.0% | 76.4hPa | 0V | 00:00:00 | 00:00:00 | 00:00:00 | |
| AUTORXJP | 2026-09-01 00:58:12 | 43.94626 | 5.38202 | 101° | 33km/h | 18484m | -10.2m/s | -56.4°C | 0.0% | 72.6hPa | 0V | 00:00:00 | 00:00:00 | 00:00:00 | |
| AUTORXJP | 2026-09-01 00:57:41 | 43.94669 | 5.38031 | 71° | 20km/h | 18840m | -11.3m/s | -56.6°C | 0.0% | 68.5hPa | 0V | 00:00:00 | 00:00:00 | 00:00:00 | |
| AUTORXJP | 2026-09-01 00:57:09 | 43.94655 | 5.37727 | 101° | 37km/h | 19218m | -10.2m/s | -57.1°C | 0.0% | 64.4hPa | 0V | 00:00:00 | 00:00:00 | 00:00:00 | |
| AUTORXJP | 2026-09-01 00:56:38 | 43.94728 | 5.37465 | 112° | 29km/h | 19614m | -10.2m/s | -57.3°C | 0.0% | 60.3hPa | 0V | 00:00:00 | 00:00:00 | 00:00:00 | |
| AUTORXJP | 2026-09-01 00:56:07 | 43.94841 | 5.37373 | 91° | 7km/h | 20028m | -12.8m/s | -58.0°C | 0.0% | 56.3hPa | 0V | 00:00:00 | 00:00:00 | 00:00:00 | |
| AUTORXJP | 2026-09-01 00:55:36 | 43.94837 | 5.37236 | 43° | 7km/h | 20475m | -15.3m/s | -56.2°C | 0.0% | 52.2hPa | 0V | 00:00:00 | 00:00:00 | 00:00:00 | |
| AUTORXJP | 2026-09-01 00:55:06 | 43.94863 | 5.37156 | 226° | 4km/h | 20953m | -13.7m/s | -54.8°C | 0.0% | 48.3hPa | 0V | 00:00:00 | 00:00:00 | 00:00:00 | |
| AUTORXJP | 2026-09-01 00:54:34 | 43.94896 | 5.37185 | 27° | 4km/h | 21445m | -14.6m/s | -55.2°C | 0.0% | 44.5hPa | 0V | 00:00:00 | 00:00:00 | 00:00:00 | |
| AUTORXJP | 2026-09-01 00:54:03 | 43.94846 | 5.37136 | 270° | 15km/h | 21959m | -15.4m/s | -54.5°C | 0.0% | 40.9hPa | 0V | 00:00:00 | 00:00:00 | 00:00:00 | |
| AUTORXJP | 2026-09-01 00:53:32 | 43.94905 | 5.37287 | 287° | 16km/h | 22476m | -17.2m/s | -53.9°C | 0.0% | 37.5hPa | 0V | 00:00:00 | 00:00:00 | 00:00:00 | |
| AUTORXJP | 2026-09-01 00:52:30 | 43.94803 | 5.37478 | 319° | 40km/h | 23563m | -14.9m/s | -52.8°C | 0.0% | 31.2hPa | 0V | 00:00:00 | 00:00:00 | 00:00:00 | |
| AUTORXJP | 2026-09-01 00:51:59 | 43.94695 | 5.37547 | 297° | 7km/h | 24039m | -18.2m/s | -52.2°C | 0.0% | 28.8hPa | 0V | 00:00:00 | 00:00:00 | 00:00:00 | |
| AUTORXJP | 2026-09-01 00:51:28 | 43.94653 | 5.37691 | 314° | 22km/h | 24633m | -20.8m/s | -52.7°C | 0.0% | 26.0hPa | 0V | 00:00:00 | 00:00:00 | 00:00:00 | |
| AUTORXJP | 2026-09-01 00:50:56 | 43.94495 | 5.37783 | 25° | 11km/h | 25277m | -20.4m/s | -50.9°C | 0.0% | 23.3hPa | 0V | 00:00:00 | 00:00:00 | 00:00:00 | |
| AUTORXJP | 2026-09-01 00:50:25 | 43.94487 | 5.37704 | 158° | 29km/h | 25956m | -20.8m/s | -49.7°C | 0.0% | 20.7hPa | 0V | 00:00:00 | 00:00:00 | 00:00:00 | |
| AUTORXJP | 2026-09-01 00:49:54 | 43.94503 | 5.37574 | 159° | 27km/h | 26565m | -18.6m/s | -49.3°C | 0.0% | 18.6hPa | 0V | 00:00:00 | 00:00:00 | 00:00:00 | |
| AUTORXJP | 2026-09-01 00:49:23 | 43.94541 | 5.37420 | 296° | 35km/h | 27177m | -18.1m/s | -47.9°C | 0.0% | 16.8hPa | 0V | 00:00:00 | 00:00:00 | 00:00:00 | |
| AUTORXJP | 2026-09-01 00:48:52 | 43.94525 | 5.37515 | 260° | 11km/h | 27770m | 4.5m/s | -48.0°C | 0.0% | 15.1hPa | 0V | 00:00:00 | 00:00:00 | 00:00:00 | |
| AUTORXJP | 2026-09-01 00:48:21 | 43.94458 | 5.37556 | 265° | 2km/h | 27594m | 7.2m/s | -48.4°C | 0.0% | 15.6hPa | 0V | 00:00:00 | 00:00:00 | 00:00:00 | |
| AUTORXJP | 2026-09-01 00:47:50 | 43.94450 | 5.37570 | 15° | 13km/h | 27414m | 4.7m/s | -48.1°C | 0.0% | 16.1hPa | 0V | 00:00:00 | 00:00:00 | 00:00:00 | |
| AUTORXJP | 2026-09-01 00:47:19 | 43.94451 | 5.37615 | 343° | 4km/h | 27232m | 6.1m/s | -48.0°C | 0.0% | 16.6hPa | 0V | 00:00:00 | 00:00:00 | 00:00:00 | |
| AUTORXJP | 2026-09-01 00:46:48 | 43.94527 | 5.37626 | 177° | 11km/h | 27052m | 4.8m/s | -48.3°C | 0.0% | 17.1hPa | 0V | 00:00:00 | 00:00:00 | 00:00:00 | |
| AUTORXJP | 2026-09-01 00:46:17 | 43.94677 | 5.37555 | 137° | 27km/h | 26876m | 5.8m/s | -48.7°C | 0.0% | 17.7hPa | 0V | 00:00:00 | 00:00:00 | 00:00:00 | |
| AUTORXJP | 2026-09-01 00:45:46 | 43.94733 | 5.37377 | 86° | 16km/h | 26704m | 6.0m/s | -48.8°C | 0.0% | 18.2hPa | 0V | 00:00:00 | 00:00:00 | 00:00:00 | |
| AUTORXJP | 2026-09-01 00:45:14 | 43.94619 | 5.37237 | 47° | 18km/h | 26530m | 6.7m/s | -49.4°C | 0.0% | 18.8hPa | 0V | 00:00:00 | 00:00:00 | 00:00:00 | |
| AUTORXJP | 2026-09-01 00:44:44 | 43.94548 | 5.37222 | 67° | 11km/h | 26350m | 5.6m/s | -49.6°C | 0.0% | 19.4hPa | 0V | 00:00:00 | 00:00:00 | 00:00:00 | |
| AUTORXJP | 2026-09-01 00:44:12 | 43.94521 | 5.37107 | 99° | 22km/h | 26168m | 6.1m/s | -49.9°C | 0.0% | 20.0hPa | 0V | 00:00:00 | 00:00:00 | 00:00:00 | |
| AUTORXJP | 2026-09-01 00:43:41 | 43.94524 | 5.36960 | 307° | 2km/h | 25980m | 5.5m/s | -49.9°C | 0.0% | 20.7hPa | 0V | 00:00:00 | 00:00:00 | 00:00:00 | |
| AUTORXJP | 2026-09-01 00:43:10 | 43.94524 | 5.36875 | 10° | 15km/h | 25800m | 8.4m/s | -50.1°C | 0.0% | 21.4hPa | 0V | 00:00:00 | 00:00:00 | 00:00:00 | |
| AUTORXJP | 2026-09-01 00:42:47 | 43.94464 | 5.36754 | 67° | 26km/h | 25617m | 7.5m/s | -50.4°C | 0.0% | 22.1hPa | 0V | 00:00:00 | 00:00:00 | 00:00:00 | |
| AUTORXJP | 2026-09-01 00:42:08 | 43.94376 | 5.36673 | 25° | 13km/h | 25433m | 4.9m/s | -50.8°C | 0.0% | 22.8hPa | 0V | 00:00:00 | 00:00:00 | 00:00:00 | |
| AUTORXJP | 2026-09-01 00:41:37 | 43.94303 | 5.36655 | 336° | 16km/h | 25260m | 4.6m/s | -50.5°C | 0.0% | 23.5hPa | 0V | 00:00:00 | 00:00:00 | 00:00:00 | |
| AUTORXJP | 2026-09-01 00:41:06 | 43.94215 | 5.36623 | 357° | 35km/h | 25091m | 3.4m/s | -51.4°C | 0.0% | 24.2hPa | 0V | 00:00:00 | 00:00:00 | 00:00:00 | |
| AUTORXJP | 2026-09-01 00:40:35 | 43.94044 | 5.36677 | 340° | 22km/h | 24929m | 6.7m/s | -52.2°C | 0.0% | 24.9hPa | 0V | 00:00:00 | 00:00:00 | 00:00:00 | |
| AUTORXJP | 2026-09-01 00:40:04 | 43.93872 | 5.36885 | 313° | 31km/h | 24768m | 6.1m/s | -53.0°C | 0.0% | 25.5hPa | 0V | 00:00:00 | 00:00:00 | 00:00:00 | |
| AUTORXJP | 2026-09-01 00:39:33 | 43.93741 | 5.37068 | 305° | 24km/h | 24600m | 6.2m/s | -53.0°C | 0.0% | 26.3hPa | 0V | 00:00:00 | 00:00:00 | 00:00:00 | |
| AUTORXJP | 2026-09-01 00:39:02 | 43.93679 | 5.37273 | 269° | 16km/h | 24425m | 6.0m/s | -52.9°C | 0.0% | 27.1hPa | 0V | 00:00:00 | 00:00:00 | 00:00:00 | |
| AUTORXJP | 2026-09-01 00:38:31 | 43.93712 | 5.37455 | 253° | 18km/h | 24246m | 5.2m/s | -52.6°C | 0.0% | 27.9hPa | 0V | 00:00:00 | 00:00:00 | 00:00:00 | |
| AUTORXJP | 2026-09-01 00:38:00 | 43.93742 | 5.37534 | 311° | 13km/h | 24074m | 4.9m/s | -52.2°C | 0.0% | 28.8hPa | 0V | 00:00:00 | 00:00:00 | 00:00:00 | |
| AUTORXJP | 2026-09-01 00:37:28 | 43.93682 | 5.37607 | 339° | 11km/h | 23897m | 6.7m/s | -52.2°C | 0.0% | 29.6hPa | 0V | 00:00:00 | 00:00:00 | 00:00:00 | |
| AUTORXJP | 2026-09-01 00:36:57 | 43.93586 | 5.37672 | 301° | 4km/h | 23725m | 5.1m/s | -52.3°C | 0.0% | 30.5hPa | 0V | 00:00:00 | 00:00:00 | 00:00:00 | |
| AUTORXJP | 2026-09-01 00:36:26 | 43.93495 | 5.37770 | 279° | 18km/h | 23552m | 5.3m/s | -53.0°C | 0.0% | 31.4hPa | 0V | 00:00:00 | 00:00:00 | 00:00:00 | |
| AUTORXJP | 2026-09-01 00:35:55 | 43.93468 | 5.37919 | 278° | 11km/h | 23391m | 4.5m/s | -53.2°C | 0.0% | 32.3hPa | 0V | 00:00:00 | 00:00:00 | 00:00:00 | |
| AUTORXJP | 2026-09-01 00:35:24 | 43.93478 | 5.37984 | 183° | 7km/h | 23225m | 4.7m/s | -53.6°C | 0.0% | 33.2hPa | 0V | 00:00:00 | 00:00:00 | 00:00:00 | |
| AUTORXJP | 2026-09-01 00:34:53 | 43.93449 | 5.37933 | 26° | 18km/h | 23065m | 5.3m/s | -54.5°C | 0.0% | 34.1hPa | 0V | 00:00:00 | 00:00:00 | 00:00:00 | |
| AUTORXJP | 2026-09-01 00:34:22 | 43.93328 | 5.37892 | 357° | 22km/h | 22905m | 6.0m/s | -54.6°C | 0.0% | 35.0hPa | 0V | 00:00:00 | 00:00:00 | 00:00:00 | |
| AUTORXJP | 2026-09-01 00:33:51 | 43.93188 | 5.38035 | 304° | 18km/h | 22736m | 5.7m/s | -54.6°C | 0.0% | 36.0hPa | 0V | 00:00:00 | 00:00:00 | 00:00:00 | |
| AUTORXJP | 2026-09-01 00:33:20 | 43.93138 | 5.38174 | 249° | 9km/h | 22567m | 6.7m/s | -54.7°C | 0.0% | 37.1hPa | 0V | 00:00:00 | 00:00:00 | 00:00:00 | |
| AUTORXJP | 2026-09-01 00:32:49 | 43.93154 | 5.38311 | 261° | 16km/h | 22395m | 6.5m/s | -54.6°C | 0.0% | 38.1hPa | 0V | 00:00:00 | 00:00:00 | 00:00:00 | |
| AUTORXJP | 2026-09-01 00:32:18 | 43.93258 | 5.38376 | 195° | 13km/h | 22232m | 5.5m/s | -55.2°C | 0.0% | 39.2hPa | 0V | 00:00:00 | 00:00:00 | 00:00:00 | |
| AUTORXJP | 2026-09-01 00:31:47 | 43.93346 | 5.38398 | 248° | 5km/h | 22064m | 5.2m/s | -55.0°C | 0.0% | 40.3hPa | 0V | 00:00:00 | 00:00:00 | 00:00:00 | |
| AUTORXJP | 2026-09-01 00:31:16 | 43.93379 | 5.38357 | 123° | 11km/h | 21898m | 5.0m/s | -55.2°C | 0.0% | 41.5hPa | 0V | 00:00:00 | 00:00:00 | 00:00:00 | |
| AUTORXJP | 2026-09-01 00:30:44 | 43.93423 | 5.38206 | 93° | 11km/h | 21737m | 5.2m/s | -55.3°C | 0.0% | 42.6hPa | 0V | 00:00:00 | 00:00:00 | 00:00:00 | |
| AUTORXJP | 2026-09-01 00:30:13 | 43.93359 | 5.38116 | 4° | 15km/h | 21569m | 8.0m/s | -55.6°C | 0.0% | 43.8hPa | 0V | 00:00:00 | 00:00:00 | 00:00:00 | |
| AUTORXJP | 2026-09-01 00:29:42 | 43.93307 | 5.38147 | 121° | 5km/h | 21404m | 4.0m/s | -54.8°C | 0.0% | 45.0hPa | 0V | 00:00:00 | 00:00:00 | 00:00:00 | |
| AUTORXJP | 2026-09-01 00:29:11 | 43.93383 | 5.38182 | 194° | 24km/h | 21243m | 6.5m/s | -54.9°C | 0.0% | 46.2hPa | 0V | 00:00:00 | 00:00:00 | 00:00:00 | |
| AUTORXJP | 2026-09-01 00:28:40 | 43.93456 | 5.38155 | 262° | 4km/h | 21086m | 5.8m/s | -55.2°C | 0.0% | 47.4hPa | 0V | 00:00:00 | 00:00:00 | 00:00:00 | |
| AUTORXJP | 2026-09-01 00:28:09 | 43.93530 | 5.38231 | 209° | 22km/h | 20929m | 5.1m/s | -54.4°C | 0.0% | 48.7hPa | 0V | 00:00:00 | 00:00:00 | 00:00:00 | |
| AUTORXJP | 2026-09-01 00:27:38 | 43.93629 | 5.38219 | 147° | 15km/h | 20769m | 3.8m/s | -54.5°C | 0.0% | 50.0hPa | 0V | 00:00:00 | 00:00:00 | 00:00:00 | |
| AUTORXJP | 2026-09-01 00:27:07 | 43.93663 | 5.38098 | 103° | 11km/h | 20608m | 5.1m/s | -54.7°C | 0.0% | 51.3hPa | 0V | 00:00:00 | 00:00:00 | 00:00:00 | |
| AUTORXJP | 2026-09-01 00:26:36 | 43.93635 | 5.37999 | 97° | 11km/h | 20451m | 7.1m/s | -56.1°C | 0.0% | 52.7hPa | 0V | 00:00:00 | 00:00:00 | 00:00:00 | |
| AUTORXJP | 2026-09-01 00:26:05 | 43.93625 | 5.37856 | 34° | 13km/h | 20291m | 4.1m/s | -56.4°C | 0.0% | 54.1hPa | 0V | 00:00:00 | 00:00:00 | 00:00:00 | |
| AUTORXJP | 2026-09-01 00:25:34 | 43.93588 | 5.37708 | 76° | 15km/h | 20133m | 5.2m/s | -56.5°C | 0.1% | 55.5hPa | 0V | 00:00:00 | 00:00:00 | 00:00:00 | |
| AUTORXJP | 2026-09-01 00:25:02 | 43.93584 | 5.37555 | 124° | 13km/h | 19972m | 4.0m/s | -57.6°C | 0.1% | 57.0hPa | 0V | 00:00:00 | 00:00:00 | 00:00:00 | |
| AUTORXJP | 2026-09-01 00:24:32 | 43.93662 | 5.37445 | 119° | 24km/h | 19813m | 5.9m/s | -56.9°C | 0.2% | 58.5hPa | 0V | 00:00:00 | 00:00:00 | 00:00:00 | |
| AUTORXJP | 2026-09-01 00:24:01 | 43.93783 | 5.37243 | 98° | 24km/h | 19661m | 5.1m/s | -58.1°C | 0.2% | 60.0hPa | 0V | 00:00:00 | 00:00:00 | 00:00:00 | |
| AUTORXJP | 2026-09-01 00:23:29 | 43.93780 | 5.36998 | 75° | 27km/h | 19497m | 3.1m/s | -57.6°C | 0.3% | 61.6hPa | 0V | 00:00:00 | 00:00:00 | 00:00:00 | |
| AUTORXJP | 2026-09-01 00:22:58 | 43.93762 | 5.36751 | 68° | 37km/h | 19341m | 5.4m/s | -57.5°C | 0.5% | 63.2hPa | 0V | 00:00:00 | 00:00:00 | 00:00:00 | |
| AUTORXJP | 2026-09-01 00:21:56 | 43.93581 | 5.36105 | 50° | 27km/h | 19027m | 4.3m/s | -57.4°C | 0.7% | 66.6hPa | 0V | 00:00:00 | 00:00:00 | 00:00:00 | |
| AUTORXJP | 2026-09-01 00:21:25 | 43.93498 | 5.35917 | 62° | 22km/h | 18870m | 5.2m/s | -56.9°C | 0.9% | 68.3hPa | 0V | 00:00:00 | 00:00:00 | 00:00:00 | |
| AUTORXJP | 2026-09-01 00:20:54 | 43.93508 | 5.35775 | 127° | 20km/h | 18725m | 5.3m/s | -56.9°C | 1.0% | 70.0hPa | 0V | 00:00:00 | 00:00:00 | 00:00:00 | |
| AUTORXJP | 2026-09-01 00:20:23 | 43.93598 | 5.35496 | 105° | 20km/h | 18575m | 4.5m/s | -57.5°C | 1.1% | 71.6hPa | 0V | 00:00:00 | 00:00:00 | 00:00:00 | |
| AUTORXJP | 2026-09-01 00:19:52 | 43.93693 | 5.35080 | 92° | 33km/h | 18430m | 4.9m/s | -57.5°C | 1.2% | 73.4hPa | 0V | 00:00:00 | 00:00:00 | 00:00:00 | |
| AUTORXJP | 2026-09-01 00:19:21 | 43.93707 | 5.34656 | 76° | 42km/h | 18272m | 6.2m/s | -57.5°C | 1.3% | 75.3hPa | 0V | 00:00:00 | 00:00:00 | 00:00:00 | |
| AUTORXJP | 2026-09-01 00:18:50 | 43.93565 | 5.34154 | 56° | 51km/h | 18116m | 4.1m/s | -57.8°C | 1.6% | 77.3hPa | 0V | 00:00:00 | 00:00:00 | 00:00:00 | |
| AUTORXJP | 2026-09-01 00:18:18 | 43.93338 | 5.33639 | 63° | 55km/h | 17974m | 5.0m/s | -57.0°C | 1.8% | 79.1hPa | 0V | 00:00:00 | 00:00:00 | 00:00:00 | |
| AUTORXJP | 2026-09-01 00:17:47 | 43.93081 | 5.33168 | 48° | 53km/h | 17827m | 6.8m/s | -57.5°C | 2.1% | 81.0hPa | 0V | 00:00:00 | 00:00:00 | 00:00:00 | |
| AUTORXJP | 2026-09-01 00:17:16 | 43.92874 | 5.32812 | 55° | 35km/h | 17673m | 5.3m/s | -56.5°C | 2.5% | 83.1hPa | 0V | 00:00:00 | 00:00:00 | 00:00:00 | |
| AUTORXJP | 2026-09-01 00:16:45 | 43.92735 | 5.32560 | 77° | 9km/h | 17522m | 5.4m/s | -57.1°C | 2.7% | 85.1hPa | 0V | 00:00:00 | 00:00:00 | 00:00:00 | |
| AUTORXJP | 2026-09-01 00:16:14 | 43.92750 | 5.32315 | 112° | 29km/h | 17377m | 4.4m/s | -57.3°C | 3.1% | 87.2hPa | 0V | 00:00:00 | 00:00:00 | 00:00:00 | |
| AUTORXJP | 2026-09-01 00:15:43 | 43.92780 | 5.31982 | 96° | 33km/h | 17227m | 4.9m/s | -57.6°C | 3.4% | 89.3hPa | 0V | 00:00:00 | 00:00:00 | 00:00:00 | |
| AUTORXJP | 2026-09-01 00:15:12 | 43.92808 | 5.31599 | 95° | 38km/h | 17085m | 5.5m/s | -58.0°C | 3.7% | 91.4hPa | 0V | 00:00:00 | 00:00:00 | 00:00:00 | |
| AUTORXJP | 2026-09-01 00:14:41 | 43.92844 | 5.31159 | 92° | 38km/h | 16940m | 3.4m/s | -58.2°C | 4.0% | 93.6hPa | 0V | 00:00:00 | 00:00:00 | 00:00:00 | |
| AUTORXJP | 2026-09-01 00:14:10 | 43.92940 | 5.30712 | 118° | 42km/h | 16792m | 5.9m/s | -57.7°C | 4.2% | 95.8hPa | 0V | 00:00:00 | 00:00:00 | 00:00:00 | |
| AUTORXJP | 2026-09-01 00:13:39 | 43.93036 | 5.30131 | 101° | 47km/h | 16655m | 5.9m/s | -60.0°C | 4.3% | 98.0hPa | 0V | 00:00:00 | 00:00:00 | 00:00:00 | |
| AUTORXJP | 2026-09-01 00:13:08 | 43.93035 | 5.29539 | 93° | 51km/h | 16516m | 4.6m/s | -59.6°C | 4.6% | 100.2hPa | 0V | 00:00:00 | 00:00:00 | 00:00:00 | |
| AUTORXJP | 2026-09-01 00:12:37 | 43.93029 | 5.28940 | 97° | 51km/h | 16378m | 3.7m/s | -60.1°C | 5.0% | 102.5hPa | 0V | 00:00:00 | 00:00:00 | 00:00:00 | |
| AUTORXJP | 2026-09-01 00:12:06 | 43.93010 | 5.28331 | 85° | 53km/h | 16237m | 4.7m/s | -60.1°C | 5.3% | 104.9hPa | 0V | 00:00:00 | 00:00:00 | 00:00:00 | |
| AUTORXJP | 2026-09-01 00:11:34 | 43.92982 | 5.27706 | 78° | 55km/h | 16101m | 3.1m/s | -59.5°C | 5.5% | 107.3hPa | 0V | 00:00:00 | 00:00:00 | 00:00:00 | |
| AUTORXJP | 2026-09-01 00:11:03 | 43.92938 | 5.27040 | 90° | 64km/h | 15965m | 4.2m/s | -60.1°C | 5.6% | 109.6hPa | 0V | 00:00:00 | 00:00:00 | 00:00:00 | |
| AUTORXJP | 2026-09-01 00:10:32 | 43.92912 | 5.26314 | 81° | 69km/h | 15824m | 5.9m/s | -60.1°C | 6.0% | 112.2hPa | 0V | 00:00:00 | 00:00:00 | 00:00:00 | |
| AUTORXJP | 2026-09-01 00:10:01 | 43.92786 | 5.25598 | 65° | 71km/h | 15678m | 5.0m/s | -59.2°C | 6.5% | 114.9hPa | 0V | 00:00:00 | 00:00:00 | 00:00:00 | |
| AUTORXJP | 2026-09-01 00:09:30 | 43.92563 | 5.24900 | 64° | 68km/h | 15533m | 4.9m/s | -58.6°C | 7.0% | 117.7hPa | 0V | 00:00:00 | 00:00:00 | 00:00:00 | |
| AUTORXJP | 2026-09-01 00:08:59 | 43.92359 | 5.24168 | 71° | 75km/h | 15384m | 3.7m/s | -58.1°C | 7.9% | 120.5hPa | 0V | 00:00:00 | 00:00:00 | 00:00:00 | |
| AUTORXJP | 2026-09-01 00:08:28 | 43.92226 | 5.23402 | 81° | 84km/h | 15233m | 4.5m/s | -57.4°C | 8.9% | 123.5hPa | 0V | 00:00:00 | 00:00:00 | 00:00:00 | |
| AUTORXJP | 2026-09-01 00:07:57 | 43.92136 | 5.22560 | 79° | 80km/h | 15097m | 6.7m/s | -57.4°C | 10.0% | 126.3hPa | 0V | 00:00:00 | 00:00:00 | 00:00:00 | |
| AUTORXJP | 2026-09-01 00:07:26 | 43.92062 | 5.21719 | 84° | 71km/h | 14956m | 3.5m/s | -58.1°C | 11.2% | 129.2hPa | 0V | 00:00:00 | 00:00:00 | 00:00:00 | |
| AUTORXJP | 2026-09-01 00:06:55 | 43.91999 | 5.20884 | 76° | 77km/h | 14830m | 4.1m/s | -58.2°C | 12.5% | 131.9hPa | 0V | 00:00:00 | 00:00:00 | 00:00:00 | |
| AUTORXJP | 2026-09-01 00:06:24 | 43.91912 | 5.20004 | 79° | 78km/h | 14704m | 4.8m/s | -58.5°C | 13.8% | 134.6hPa | 0V | 00:00:00 | 00:00:00 | 00:00:00 | |
| AUTORXJP | 2026-09-01 00:05:53 | 43.91853 | 5.19073 | 78° | 84km/h | 14572m | 5.9m/s | -59.4°C | 15.1% | 137.5hPa | 0V | 00:00:00 | 00:00:00 | 00:00:00 | |
| AUTORXJP | 2026-09-01 00:05:22 | 43.91743 | 5.18103 | 84° | 100km/h | 14433m | 5.9m/s | -60.0°C | 16.7% | 140.6hPa | 0V | 00:00:00 | 00:00:00 | 00:00:00 | |
| AUTORXJP | 2026-09-01 00:04:52 | 43.91606 | 5.17018 | 81° | 99km/h | 14287m | 4.1m/s | -60.2°C | 18.6% | 144.0hPa | 0V | 00:00:00 | 00:00:00 | 00:00:00 | |
| AUTORXJP | 2026-09-01 00:04:20 | 43.91413 | 5.15949 | 78° | 102km/h | 14138m | 2.6m/s | -60.6°C | 20.6% | 147.5hPa | 0V | 00:00:00 | 00:00:00 | 00:00:00 | |
| AUTORXJP | 2026-09-01 00:03:51 | 43.91199 | 5.14829 | 72° | 108km/h | 13993m | 4.4m/s | -61.2°C | 22.1% | 151.1hPa | 0V | 00:00:00 | 00:00:00 | 00:00:00 | |
| AUTORXJP | 2026-09-01 00:03:33 | 43.90967 | 5.13677 | 73° | 110km/h | 13854m | 5.4m/s | -61.0°C | 22.8% | 154.6hPa | 0V | 00:00:00 | 00:00:00 | 00:00:00 | |
| AUTORXJP | 2026-09-01 00:02:18 | 43.90624 | 5.11260 | 81° | 115km/h | 13582m | 3.3m/s | -60.4°C | 24.7% | 161.6hPa | 0V | 00:00:00 | 00:00:00 | 00:00:00 | |
| AUTORXJP | 2026-09-01 00:02:00 | 43.90452 | 5.10004 | 78° | 120km/h | 13452m | 6.3m/s | -59.5°C | 25.8% | 165.0hPa | 0V | 00:00:00 | 00:00:00 | 00:00:00 | |
| AUTORXJP | 2026-09-01 00:01:17 | 43.90236 | 5.08687 | 76° | 124km/h | 13319m | 3.5m/s | -59.6°C | 26.7% | 168.6hPa | 0V | 00:00:00 | 00:00:00 | 00:00:00 | |
| AUTORXJP | 2026-09-01 00:00:17 | 43.89710 | 5.06050 | 65° | 131km/h | 13050m | 3.6m/s | -58.5°C | 28.9% | 176.0hPa | 0V | 00:00:00 | 00:00:00 | 00:00:00 | |
| AUTORXJP | 2026-08-31 23:59:09 | 43.89084 | 5.03323 | 74° | 128km/h | 12781m | 4.1m/s | -57.8°C | 31.2% | 183.9hPa | 0V | 00:00:00 | 00:00:00 | 00:00:00 | |
| AUTORXJP | 2026-08-31 23:58:38 | 43.88752 | 5.01963 | 70° | 131km/h | 12648m | 3.5m/s | -57.5°C | 32.5% | 187.8hPa | 0V | 00:00:00 | 00:00:00 | 00:00:00 | |
| AUTORXJP | 2026-08-31 23:58:06 | 43.88410 | 5.00558 | 69° | 135km/h | 12510m | 4.0m/s | -57.2°C | 33.5% | 192.0hPa | 0V | 00:00:00 | 00:00:00 | 00:00:00 | |
| AUTORXJP | 2026-08-31 23:57:35 | 43.88081 | 4.99226 | 68° | 131km/h | 12378m | 4.8m/s | -57.0°C | 34.5% | 196.1hPa | 0V | 00:00:00 | 00:00:00 | 00:00:00 | |
| AUTORXJP | 2026-08-31 23:57:04 | 43.87725 | 4.97924 | 68° | 122km/h | 12249m | 5.7m/s | -55.9°C | 35.8% | 200.2hPa | 0V | 00:00:00 | 00:00:00 | 00:00:00 | |
| AUTORXJP | 2026-08-31 23:56:33 | 43.87362 | 4.96631 | 65° | 128km/h | 12118m | 5.0m/s | -55.2°C | 37.6% | 204.3hPa | 0V | 00:00:00 | 00:00:00 | 00:00:00 | |
| AUTORXJP | 2026-08-31 23:56:03 | 43.87009 | 4.95358 | 70° | 119km/h | 11994m | 4.5m/s | -54.9°C | 38.5% | 208.4hPa | 0V | 00:00:00 | 00:00:00 | 00:00:00 | |
| AUTORXJP | 2026-08-31 23:55:31 | 43.86709 | 4.94078 | 72° | 122km/h | 11866m | 4.4m/s | -54.9°C | 39.5% | 212.7hPa | 0V | 00:00:00 | 00:00:00 | 00:00:00 | |
| AUTORXJP | 2026-08-31 23:55:00 | 43.86453 | 4.92835 | 76° | 122km/h | 11749m | 3.5m/s | -54.2°C | 39.6% | 216.7hPa | 0V | 00:00:00 | 00:00:00 | 00:00:00 | |
| AUTORXJP | 2026-08-31 23:54:29 | 43.86201 | 4.91576 | 73° | 122km/h | 11627m | 3.5m/s | -53.3°C | 39.4% | 220.9hPa | 0V | 00:00:00 | 00:00:00 | 00:00:00 | |
| AUTORXJP | 2026-08-31 23:53:58 | 43.85925 | 4.90318 | 74° | 120km/h | 11506m | 4.5m/s | -52.4°C | 42.1% | 225.1hPa | 0V | 00:00:00 | 00:00:00 | 00:00:00 | |
| AUTORXJP | 2026-08-31 23:53:27 | 43.85647 | 4.89082 | 73° | 119km/h | 11373m | 6.9m/s | -51.5°C | 46.3% | 229.8hPa | 0V | 00:00:00 | 00:00:00 | 00:00:00 | |
| AUTORXJP | 2026-08-31 23:52:56 | 43.85385 | 4.87893 | 73° | 117km/h | 11228m | 5.5m/s | -50.8°C | 47.3% | 235.1hPa | 0V | 00:00:00 | 00:00:00 | 00:00:00 | |
| AUTORXJP | 2026-08-31 23:52:25 | 43.85146 | 4.86746 | 72° | 110km/h | 11084m | 4.1m/s | -49.9°C | 47.0% | 240.4hPa | 0V | 00:00:00 | 00:00:00 | 00:00:00 | |
| AUTORXJP | 2026-08-31 23:51:54 | 43.84908 | 4.85651 | 73° | 95km/h | 10951m | 2.6m/s | -48.7°C | 46.6% | 245.4hPa | 0V | 00:00:00 | 00:00:00 | 00:00:00 | |
| AUTORXJP | 2026-08-31 23:51:23 | 43.84685 | 4.84598 | 72° | 99km/h | 10816m | 4.7m/s | -47.6°C | 48.8% | 250.5hPa | 0V | 00:00:00 | 00:00:00 | 00:00:00 | |
| AUTORXJP | 2026-08-31 23:50:52 | 43.84488 | 4.83601 | 72° | 88km/h | 10685m | 5.1m/s | -47.0°C | 53.3% | 255.6hPa | 0V | 00:00:00 | 00:00:00 | 00:00:00 | |
| AUTORXJP | 2026-08-31 23:50:27 | 43.84347 | 4.82622 | 78° | 93km/h | 10550m | 5.3m/s | -46.0°C | 55.9% | 260.9hPa | 0V | 00:00:00 | 00:00:00 | 00:00:00 | |
| AUTORXJP | 2026-08-31 23:49:49 | 43.84244 | 4.81609 | 84° | 91km/h | 10420m | 3.9m/s | -45.0°C | 58.9% | 266.1hPa | 0V | 00:00:00 | 00:00:00 | 00:00:00 | |
| AUTORXJP | 2026-08-31 23:49:18 | 43.84144 | 4.80531 | 82° | 89km/h | 10278m | 6.2m/s | -43.8°C | 60.0% | 271.9hPa | 0V | 00:00:00 | 00:00:00 | 00:00:00 | |
| AUTORXJP | 2026-08-31 23:48:47 | 43.84062 | 4.79510 | 83° | 88km/h | 10140m | 3.4m/s | -42.8°C | 62.3% | 277.7hPa | 0V | 00:00:00 | 00:00:00 | 00:00:00 | |
| AUTORXJP | 2026-08-31 23:48:16 | 43.83986 | 4.78472 | 85° | 99km/h | 10011m | 4.7m/s | -41.8°C | 63.8% | 283.0hPa | 0V | 00:00:00 | 00:00:00 | 00:00:00 | |
| AUTORXJP | 2026-08-31 23:47:45 | 43.83919 | 4.77429 | 84° | 95km/h | 9885m | 4.1m/s | -40.7°C | 65.5% | 288.3hPa | 0V | 00:00:00 | 00:00:00 | 00:00:00 | |
| AUTORXJP | 2026-08-31 23:47:14 | 43.83865 | 4.76370 | 89° | 99km/h | 9757m | 4.3m/s | -39.6°C | 65.8% | 293.9hPa | 0V | 00:00:00 | 00:00:00 | 00:00:00 | |
| AUTORXJP | 2026-08-31 23:46:43 | 43.83825 | 4.75286 | 89° | 104km/h | 9628m | 3.8m/s | -38.4°C | 65.3% | 299.6hPa | 0V | 00:00:00 | 00:00:00 | 00:00:00 | |
| AUTORXJP | 2026-08-31 23:46:12 | 43.83788 | 4.74198 | 89° | 95km/h | 9495m | 5.3m/s | -37.3°C | 65.7% | 305.4hPa | 0V | 00:00:00 | 00:00:00 | 00:00:00 | |
| AUTORXJP | 2026-08-31 23:45:41 | 43.83751 | 4.73124 | 88° | 93km/h | 9359m | 5.6m/s | -36.1°C | 66.0% | 311.6hPa | 0V | 00:00:00 | 00:00:00 | 00:00:00 | |
| AUTORXJP | 2026-08-31 23:45:10 | 43.83679 | 4.72075 | 86° | 95km/h | 9224m | 6.5m/s | -35.1°C | 65.6% | 317.6hPa | 0V | 00:00:00 | 00:00:00 | 00:00:00 | |
| AUTORXJP | 2026-08-31 23:44:39 | 43.83617 | 4.71025 | 83° | 97km/h | 9094m | 5.0m/s | -34.1°C | 62.0% | 323.5hPa | 0V | 00:00:00 | 00:00:00 | 00:00:00 | |
| AUTORXJP | 2026-08-31 23:44:07 | 43.83519 | 4.69998 | 84° | 99km/h | 8952m | 3.6m/s | -32.7°C | 55.5% | 330.2hPa | 0V | 00:00:00 | 00:00:00 | 00:00:00 | |
| AUTORXJP | 2026-08-31 23:43:36 | 43.83399 | 4.68917 | 79° | 97km/h | 8815m | 4.5m/s | -31.5°C | 56.0% | 336.8hPa | 0V | 00:00:00 | 00:00:00 | 00:00:00 | |
| AUTORXJP | 2026-08-31 23:43:05 | 43.83312 | 4.67846 | 87° | 97km/h | 8689m | 5.4m/s | -30.5°C | 53.6% | 343.1hPa | 0V | 00:00:00 | 00:00:00 | 00:00:00 | |
| AUTORXJP | 2026-08-31 23:42:34 | 43.83264 | 4.66785 | 86° | 100km/h | 8564m | 4.0m/s | -29.6°C | 61.0% | 349.0hPa | 0V | 00:00:00 | 00:00:00 | 00:00:00 | |
| AUTORXJP | 2026-08-31 23:42:03 | 43.83209 | 4.65742 | 85° | 95km/h | 8431m | 3.2m/s | -28.4°C | 41.3% | 355.7hPa | 0V | 00:00:00 | 00:00:00 | 00:00:00 | |
| AUTORXJP | 2026-08-31 23:41:32 | 43.83167 | 4.64715 | 85° | 89km/h | 8305m | 3.4m/s | -27.7°C | 47.6% | 362.0hPa | 0V | 00:00:00 | 00:00:00 | 00:00:00 | |
| AUTORXJP | 2026-08-31 23:41:01 | 43.83105 | 4.63764 | 83° | 84km/h | 8163m | 2.5m/s | -26.9°C | 70.1% | 369.4hPa | 0V | 00:00:00 | 00:00:00 | 00:00:00 | |
| AUTORXJP | 2026-08-31 23:40:30 | 43.83039 | 4.62831 | 81° | 78km/h | 8041m | 3.8m/s | -25.9°C | 63.3% | 375.7hPa | 0V | 00:00:00 | 00:00:00 | 00:00:00 | |
| AUTORXJP | 2026-08-31 23:39:59 | 43.82995 | 4.61927 | 76° | 77km/h | 7915m | 3.9m/s | -24.9°C | 62.5% | 382.2hPa | 0V | 00:00:00 | 00:00:00 | 00:00:00 | |
| AUTORXJP | 2026-08-31 23:39:28 | 43.82922 | 4.61056 | 78° | 73km/h | 7764m | 4.6m/s | -23.8°C | 63.9% | 390.3hPa | 0V | 00:00:00 | 00:00:00 | 00:00:00 | |
| AUTORXJP | 2026-08-31 23:38:57 | 43.82845 | 4.60207 | 86° | 73km/h | 7622m | 3.6m/s | -22.9°C | 70.5% | 398.0hPa | 0V | 00:00:00 | 00:00:00 | 00:00:00 | |
| AUTORXJP | 2026-08-31 23:38:26 | 43.82766 | 4.59401 | 87° | 69km/h | 7480m | 6.4m/s | -21.8°C | 71.8% | 405.9hPa | 0V | 00:00:00 | 00:00:00 | 00:00:00 | |
| AUTORXJP | 2026-08-31 23:37:54 | 43.82671 | 4.58611 | 79° | 68km/h | 7325m | 5.5m/s | -20.6°C | 70.7% | 414.5hPa | 0V | 00:00:00 | 00:00:00 | 00:00:00 | |
| AUTORXJP | 2026-08-31 23:37:24 | 43.82577 | 4.57846 | 83° | 73km/h | 7198m | 4.6m/s | -19.6°C | 64.2% | 422.0hPa | 0V | 00:00:00 | 00:00:00 | 00:00:00 | |
| AUTORXJP | 2026-08-31 23:36:52 | 43.82493 | 4.57068 | 77° | 68km/h | 7032m | 5.9m/s | -18.2°C | 61.6% | 431.5hPa | 0V | 00:00:00 | 00:00:00 | 00:00:00 | |
| AUTORXJP | 2026-08-31 23:36:21 | 43.82375 | 4.55943 | 82° | 64km/h | 6771m | 5.5m/s | -16.3°C | 49.5% | 446.7hPa | 0V | 00:00:00 | 00:00:00 | 00:00:00 | |
| AUTORXJP | 2026-08-31 23:35:50 | 43.82366 | 4.55489 | 86° | 62km/h | 6668m | 7.2m/s | -15.8°C | 54.2% | 453.1hPa | 0V | 00:00:00 | 00:00:00 | 00:00:00 |